sensor_id;sensor_type;location;lat;lon;timestamp;pressure;altitude;pressure_sealevel;temperature;humidity
17209;BME280;8720;48.488;9.202;2023-04-27T00:01:23;97073.56;;;14.09;48.58
17209;BME280;8720;48.488;9.202;2023-04-27T00:03:50;97076.34;;;14.05;48.58
17209;BME280;8720;48.488;9.202;2023-04-27T00:06:17;97074.66;;;14.04;48.76
17209;BME280;8720;48.488;9.202;2023-04-27T00:08:45;97077.31;;;14.02;48.66
17209;BME280;8720;48.488;9.202;2023-04-27T00:11:12;97078.25;;;14.01;48.56
17209;BME280;8720;48.488;9.202;2023-04-27T00:13:39;97073.94;;;13.99;48.81
17209;BME280;8720;48.488;9.202;2023-04-27T00:16:08;97064.34;;;13.98;48.98
17209;BME280;8720;48.488;9.202;2023-04-27T00:18:35;97067.00;;;13.96;48.96
17209;BME280;8720;48.488;9.202;2023-04-27T00:21:03;97073.94;;;13.99;49.13
17209;BME280;8720;48.488;9.202;2023-04-27T00:23:30;97073.94;;;13.99;48.97
17209;BME280;8720;48.488;9.202;2023-04-27T00:25:58;97065.25;;;13.97;49.00
17209;BME280;8720;48.488;9.202;2023-04-27T00:28:25;97067.00;;;13.98;48.95
17209;BME280;8720;48.488;9.202;2023-04-27T00:30:52;97063.50;;;13.97;49.19
17209;BME280;8720;48.488;9.202;2023-04-27T00:33:21;97076.69;;;13.96;49.05
17209;BME280;8720;48.488;9.202;2023-04-27T00:35:48;97074.09;;;13.94;49.08
17209;BME280;8720;48.488;9.202;2023-04-27T00:38:15;97068.06;;;13.92;49.03
17209;BME280;8720;48.488;9.202;2023-04-27T00:40:43;97064.63;;;13.90;49.05
17209;BME280;8720;48.488;9.202;2023-04-27T00:43:10;97071.72;;;13.88;49.18
17209;BME280;8720;48.488;9.202;2023-04-27T00:45:41;97069.19;;;13.85;49.23
17209;BME280;8720;48.488;9.202;2023-04-27T00:48:10;97062.25;;;13.83;49.39
17209;BME280;8720;48.488;9.202;2023-04-27T00:50:39;97065.88;;;13.80;49.39
17209;BME280;8720;48.488;9.202;2023-04-27T00:53:06;97063.25;;;13.80;49.31
17209;BME280;8720;48.488;9.202;2023-04-27T00:55:34;97052.81;;;13.77;49.48
17209;BME280;8720;48.488;9.202;2023-04-27T00:58:02;97061.63;;;13.76;49.56
17209;BME280;8720;48.488;9.202;2023-04-27T01:00:29;97055.56;;;13.74;49.55
17209;BME280;8720;48.488;9.202;2023-04-27T01:02:57;97059.09;;;13.73;49.41
17209;BME280;8720;48.488;9.202;2023-04-27T01:05:25;97056.47;;;13.73;49.68
17209;BME280;8720;48.488;9.202;2023-04-27T01:07:54;97050.47;;;13.69;49.66
17209;BME280;8720;48.488;9.202;2023-04-27T01:10:22;97055.78;;;13.68;49.73
17209;BME280;8720;48.488;9.202;2023-04-27T01:12:49;97043.72;;;13.62;49.79
17209;BME280;8720;48.488;9.202;2023-04-27T01:15:16;97053.31;;;13.63;49.81
17209;BME280;8720;48.488;9.202;2023-04-27T01:17:43;97059.56;;;13.61;49.84
17209;BME280;8720;48.488;9.202;2023-04-27T01:20:11;97063.03;;;13.61;50.02
17209;BME280;8720;48.488;9.202;2023-04-27T01:22:39;97064.00;;;13.59;50.14
17209;BME280;8720;48.488;9.202;2023-04-27T01:25:09;97067.53;;;13.58;50.18
17209;BME280;8720;48.488;9.202;2023-04-27T01:27:37;97066.66;;;13.57;50.20
17209;BME280;8720;48.488;9.202;2023-04-27T01:30:06;97051.16;;;13.50;50.01
17209;BME280;8720;48.488;9.202;2023-04-27T01:32:36;97057.41;;;13.47;50.02
17209;BME280;8720;48.488;9.202;2023-04-27T01:35:04;97061.59;;;13.53;49.95
17209;BME280;8720;48.488;9.202;2023-04-27T01:37:32;97060.94;;;13.46;49.79
17209;BME280;8720;48.488;9.202;2023-04-27T01:39:59;97062.69;;;13.46;50.12
17209;BME280;8720;48.488;9.202;2023-04-27T01:42:29;97064.31;;;13.50;50.28
17209;BME280;8720;48.488;9.202;2023-04-27T01:44:56;97056.53;;;13.47;50.39
17209;BME280;8720;48.488;9.202;2023-04-27T01:47:25;97057.72;;;13.38;50.78
17209;BME280;8720;48.488;9.202;2023-04-27T01:49:52;97061.13;;;13.42;50.30
17209;BME280;8720;48.488;9.202;2023-04-27T01:52:19;97062.94;;;13.40;50.42
17209;BME280;8720;48.488;9.202;2023-04-27T01:54:47;97060.38;;;13.37;50.24
17209;BME280;8720;48.488;9.202;2023-04-27T01:57:14;97063.13;;;13.34;50.21
17209;BME280;8720;48.488;9.202;2023-04-27T01:59:43;97069.41;;;13.30;50.38
17209;BME280;8720;48.488;9.202;2023-04-27T02:02:11;97067.94;;;13.21;50.44
17209;BME280;8720;48.488;9.202;2023-04-27T02:04:38;97061.06;;;13.17;50.50
17209;BME280;8720;48.488;9.202;2023-04-27T02:07:08;97069.81;;;13.18;50.49
17209;BME280;8720;48.488;9.202;2023-04-27T02:09:35;97063.88;;;13.13;50.54
17209;BME280;8720;48.488;9.202;2023-04-27T02:12:03;97072.75;;;13.09;50.67
17209;BME280;8720;48.488;9.202;2023-04-27T02:14:30;97061.53;;;13.02;50.65
17209;BME280;8720;48.488;9.202;2023-04-27T02:16:59;97068.59;;;13.00;50.59
17209;BME280;8720;48.488;9.202;2023-04-27T02:19:26;97071.41;;;12.96;50.80
17209;BME280;8720;48.488;9.202;2023-04-27T02:21:53;97039.88;;;12.69;50.72
17209;BME280;8720;48.488;9.202;2023-04-27T02:24:21;97073.41;;;12.88;50.69
17209;BME280;8720;48.488;9.202;2023-04-27T02:26:48;97072.59;;;12.86;50.96
17209;BME280;8720;48.488;9.202;2023-04-27T02:29:17;97073.59;;;12.82;50.90
17209;BME280;8720;48.488;9.202;2023-04-27T02:31:44;97071.03;;;12.80;50.99
17209;BME280;8720;48.488;9.202;2023-04-27T02:34:13;97075.41;;;12.79;50.92
17209;BME280;8720;48.488;9.202;2023-04-27T02:36:41;97085.06;;;12.79;51.03
17209;BME280;8720;48.488;9.202;2023-04-27T02:39:08;97079.81;;;12.79;50.93
17209;BME280;8720;48.488;9.202;2023-04-27T02:41:37;97071.97;;;12.77;51.00
17209;BME280;8720;48.488;9.202;2023-04-27T02:44:05;97071.22;;;12.74;50.97
17209;BME280;8720;48.488;9.202;2023-04-27T02:46:32;97085.91;;;12.79;51.00
17209;BME280;8720;48.488;9.202;2023-04-27T02:48:59;97076.38;;;12.77;51.07
17209;BME280;8720;48.488;9.202;2023-04-27T02:51:30;97079.81;;;12.79;51.04
17209;BME280;8720;48.488;9.202;2023-04-27T02:53:57;97079.81;;;12.79;51.18
17209;BME280;8720;48.488;9.202;2023-04-27T02:56:24;97085.00;;;12.80;51.07
17209;BME280;8720;48.488;9.202;2023-04-27T02:58:52;97069.56;;;12.71;51.06
17209;BME280;8720;48.488;9.202;2023-04-27T03:01:19;97092.78;;;12.84;51.09
17209;BME280;8720;48.488;9.202;2023-04-27T03:03:46;97084.00;;;12.85;51.12
17209;BME280;8720;48.488;9.202;2023-04-27T03:06:14;97058.91;;;12.76;51.07
17209;BME280;8720;48.488;9.202;2023-04-27T03:08:42;97080.44;;;12.87;51.20
17209;BME280;8720;48.488;9.202;2023-04-27T03:11:10;97083.91;;;12.88;51.18
17209;BME280;8720;48.488;9.202;2023-04-27T03:13:37;97073.47;;;12.86;51.32
17209;BME280;8720;48.488;9.202;2023-04-27T03:16:08;97076.94;;;12.87;51.35
17209;BME280;8720;48.488;9.202;2023-04-27T03:18:36;97085.56;;;12.90;51.20
17209;BME280;8720;48.488;9.202;2023-04-27T03:21:06;97082.09;;;12.90;51.05
17209;BME280;8720;48.488;9.202;2023-04-27T03:23:33;97082.03;;;12.91;51.32
17209;BME280;8720;48.488;9.202;2023-04-27T03:26:06;97081.22;;;12.89;51.22
17209;BME280;8720;48.488;9.202;2023-04-27T03:28:34;97082.00;;;12.93;51.27
17209;BME280;8720;48.488;9.202;2023-04-27T03:31:04;97082.91;;;12.92;51.34
17209;BME280;8720;48.488;9.202;2023-04-27T03:33:32;97085.53;;;12.92;51.20
17209;BME280;8720;48.488;9.202;2023-04-27T03:36:00;97089.16;;;12.88;51.33
17209;BME280;8720;48.488;9.202;2023-04-27T03:38:29;97093.41;;;12.92;51.31
17209;BME280;8720;48.488;9.202;2023-04-27T03:40:57;97092.50;;;12.93;51.36
17209;BME280;8720;48.488;9.202;2023-04-27T03:43:26;97088.09;;;12.93;51.32
17209;BME280;8720;48.488;9.202;2023-04-27T03:45:54;97085.44;;;12.95;51.24
17209;BME280;8720;48.488;9.202;2023-04-27T03:48:21;97076.75;;;12.93;51.31
17209;BME280;8720;48.488;9.202;2023-04-27T03:50:51;97085.38;;;12.96;51.20
17209;BME280;8720;48.488;9.202;2023-04-27T03:53:18;97090.59;;;12.98;51.29
17209;BME280;8720;48.488;9.202;2023-04-27T03:55:46;97094.00;;;13.00;51.37
17209;BME280;8720;48.488;9.202;2023-04-27T03:58:14;97093.13;;;13.01;51.29
17209;BME280;8720;48.488;9.202;2023-04-27T04:01:03;97094.00;;;13.00;51.33
17209;BME280;8720;48.488;9.202;2023-04-27T04:03:31;97102.69;;;13.02;51.34
17209;BME280;8720;48.488;9.202;2023-04-27T04:05:58;97099.19;;;13.03;51.32
17209;BME280;8720;48.488;9.202;2023-04-27T04:08:25;97099.19;;;13.03;51.38
17209;BME280;8720;48.488;9.202;2023-04-27T04:10:53;97096.53;;;13.04;51.47
17209;BME280;8720;48.488;9.202;2023-04-27T04:13:20;97099.09;;;13.06;51.36
17209;BME280;8720;48.488;9.202;2023-04-27T04:15:48;97094.66;;;13.08;51.25
17209;BME280;8720;48.488;9.202;2023-04-27T04:18:16;97103.41;;;13.08;51.28
17209;BME280;8720;48.488;9.202;2023-04-27T04:20:43;97097.25;;;13.09;51.51
17209;BME280;8720;48.488;9.202;2023-04-27T04:23:11;97107.72;;;13.11;51.56
17209;BME280;8720;48.488;9.202;2023-04-27T04:25:38;97103.28;;;13.11;51.52
17209;BME280;8720;48.488;9.202;2023-04-27T04:28:06;97104.22;;;13.10;51.56
17209;BME280;8720;48.488;9.202;2023-04-27T04:30:33;97109.34;;;13.13;51.39
17209;BME280;8720;48.488;9.202;2023-04-27T04:33:01;97098.00;;;13.13;51.54
17209;BME280;8720;48.488;9.202;2023-04-27T04:35:30;97110.16;;;13.15;51.69
17209;BME280;8720;48.488;9.202;2023-04-27T04:37:58;97104.00;;;13.16;51.71
17209;BME280;8720;48.488;9.202;2023-04-27T04:40:26;97106.59;;;13.18;51.60
17209;BME280;8720;48.488;9.202;2023-04-27T04:42:53;97110.44;;;13.34;51.07
17209;BME280;8720;48.488;9.202;2023-04-27T04:45:21;97112.13;;;13.35;51.39
17209;BME280;8720;48.488;9.202;2023-04-27T04:47:49;97100.13;;;13.28;51.38
17209;BME280;8720;48.488;9.202;2023-04-27T04:50:16;97121.78;;;13.34;51.52
17209;BME280;8720;48.488;9.202;2023-04-27T04:52:45;97117.31;;;13.38;51.65
17209;BME280;8720;48.488;9.202;2023-04-27T04:55:12;97122.44;;;13.41;51.78
17209;BME280;8720;48.488;9.202;2023-04-27T04:57:40;97120.56;;;13.44;51.78
17209;BME280;8720;48.488;9.202;2023-04-27T05:00:08;97118.69;;;13.48;51.91
17209;BME280;8720;48.488;9.202;2023-04-27T05:02:37;97122.03;;;13.53;51.85
17209;BME280;8720;48.488;9.202;2023-04-27T05:05:05;97125.41;;;13.56;51.97
17209;BME280;8720;48.488;9.202;2023-04-27T05:07:33;97127.91;;;13.61;51.58
17209;BME280;8720;48.488;9.202;2023-04-27T05:10:02;97124.19;;;13.66;51.72
17209;BME280;8720;48.488;9.202;2023-04-27T05:12:30;97123.13;;;13.72;51.61
17209;BME280;8720;48.488;9.202;2023-04-27T05:14:57;97119.41;;;13.78;51.51
17209;BME280;8720;48.488;9.202;2023-04-27T05:17:25;97115.72;;;13.83;51.57
17209;BME280;8720;48.488;9.202;2023-04-27T05:19:52;97112.81;;;13.91;51.60
17209;BME280;8720;48.488;9.202;2023-04-27T05:22:20;97115.16;;;13.98;51.82
17209;BME280;8720;48.488;9.202;2023-04-27T05:24:47;97117.50;;;14.06;51.60
17209;BME280;8720;48.488;9.202;2023-04-27T05:27:16;97113.72;;;14.14;51.57
17209;BME280;8720;48.488;9.202;2023-04-27T05:29:43;97116.06;;;14.22;51.55
17209;BME280;8720;48.488;9.202;2023-04-27T05:32:10;97121.88;;;14.31;51.62
17209;BME280;8720;48.488;9.202;2023-04-27T05:34:37;97113.75;;;14.37;51.32
17209;BME280;8720;48.488;9.202;2023-04-27T05:37:05;97116.66;;;14.53;51.18
17209;BME280;8720;48.488;9.202;2023-04-27T05:39:33;97117.97;;;14.65;51.22
17209;BME280;8720;48.488;9.202;2023-04-27T05:42:00;97125.41;;;14.77;51.04
17209;BME280;8720;48.488;9.202;2023-04-27T05:44:29;97123.22;;;14.88;51.03
17209;BME280;8720;48.488;9.202;2023-04-27T05:46:57;97125.47;;;14.97;50.84
17209;BME280;8720;48.488;9.202;2023-04-27T05:49:24;97119.78;;;15.07;50.65
17209;BME280;8720;48.488;9.202;2023-04-27T05:51:51;97121.16;;;15.17;50.62
17209;BME280;8720;48.488;9.202;2023-04-27T05:54:18;97118.22;;;15.23;50.55
17209;BME280;8720;48.488;9.202;2023-04-27T05:56:46;97124.78;;;15.35;50.33
17209;BME280;8720;48.488;9.202;2023-04-27T05:59:13;97135.78;;;15.46;50.25
17209;BME280;8720;48.488;9.202;2023-04-27T06:01:42;97132.63;;;15.58;50.07
17209;BME280;8720;48.488;9.202;2023-04-27T06:04:09;97131.22;;;15.71;49.71
17209;BME280;8720;48.488;9.202;2023-04-27T06:06:36;97127.06;;;15.86;49.84
17209;BME280;8720;48.488;9.202;2023-04-27T06:09:03;97142.63;;;16.12;49.67
17209;BME280;8720;48.488;9.202;2023-04-27T06:11:31;97138.09;;;16.34;49.27
17209;BME280;8720;48.488;9.202;2023-04-27T06:13:58;97136.16;;;16.58;49.24
17209;BME280;8720;48.488;9.202;2023-04-27T06:16:25;97145.75;;;16.79;48.87
17209;BME280;8720;48.488;9.202;2023-04-27T06:18:54;97148.31;;;16.99;48.54
17209;BME280;8720;48.488;9.202;2023-04-27T06:21:21;97143.16;;;17.14;48.23
17209;BME280;8720;48.488;9.202;2023-04-27T06:23:49;97147.72;;;17.30;47.65
17209;BME280;8720;48.488;9.202;2023-04-27T06:26:16;97155.97;;;17.41;47.67
17209;BME280;8720;48.488;9.202;2023-04-27T06:28:43;97158.97;;;17.52;47.18
17209;BME280;8720;48.488;9.202;2023-04-27T06:31:11;97160.16;;;17.63;47.20
17209;BME280;8720;48.488;9.202;2023-04-27T06:33:39;97164.09;;;17.73;46.92
17209;BME280;8720;48.488;9.202;2023-04-27T06:36:08;97162.91;;;17.79;46.77
17209;BME280;8720;48.488;9.202;2023-04-27T06:38:35;97172.19;;;17.87;46.38
17209;BME280;8720;48.488;9.202;2023-04-27T06:41:03;97166.94;;;17.86;46.20
17209;BME280;8720;48.488;9.202;2023-04-27T06:43:30;97173.72;;;17.91;46.40
17209;BME280;8720;48.488;9.202;2023-04-27T06:45:57;97163.88;;;17.95;46.22
17209;BME280;8720;48.488;9.202;2023-04-27T06:48:25;97166.34;;;17.98;45.95
17209;BME280;8720;48.488;9.202;2023-04-27T06:50:52;97168.00;;;18.00;45.72
17209;BME280;8720;48.488;9.202;2023-04-27T06:53:21;97164.47;;;18.00;45.89
17209;BME280;8720;48.488;9.202;2023-04-27T06:55:48;97164.56;;;17.98;45.94
17209;BME280;8720;48.488;9.202;2023-04-27T06:58:16;97169.69;;;18.01;45.69
17209;BME280;8720;48.488;9.202;2023-04-27T07:00:43;97162.22;;;18.09;45.68
17209;BME280;8720;48.488;9.202;2023-04-27T07:03:10;97165.16;;;18.21;45.62
17209;BME280;8720;48.488;9.202;2023-04-27T07:05:38;97159.53;;;18.27;45.09
17209;BME280;8720;48.488;9.202;2023-04-27T07:08:05;97163.75;;;18.31;44.83
17209;BME280;8720;48.488;9.202;2023-04-27T07:10:37;97172.94;;;18.41;44.85
17209;BME280;8720;48.488;9.202;2023-04-27T07:13:04;97167.88;;;18.53;44.94
17209;BME280;8720;48.488;9.202;2023-04-27T07:15:32;97165.19;;;18.70;44.70
17209;BME280;8720;48.488;9.202;2023-04-27T07:17:59;97153.44;;;18.91;44.63
17209;BME280;8720;48.488;9.202;2023-04-27T07:20:26;97161.75;;;19.17;44.21
17209;BME280;8720;48.488;9.202;2023-04-27T07:22:54;97160.47;;;19.39;44.38
17209;BME280;8720;48.488;9.202;2023-04-27T07:25:21;97169.63;;;19.65;44.15
17209;BME280;8720;48.488;9.202;2023-04-27T07:27:50;97158.69;;;19.85;43.32
17209;BME280;8720;48.488;9.202;2023-04-27T07:30:17;97168.91;;;20.07;42.82
17209;BME280;8720;48.488;9.202;2023-04-27T07:32:44;97163.66;;;20.21;42.91
17209;BME280;8720;48.488;9.202;2023-04-27T07:35:13;97158.34;;;20.35;42.75
17209;BME280;8720;48.488;9.202;2023-04-27T07:37:40;97158.19;;;20.52;42.38
17209;BME280;8720;48.488;9.202;2023-04-27T07:40:09;97156.31;;;20.82;42.30
17209;BME280;8720;48.488;9.202;2023-04-27T07:42:41;97156.69;;;21.18;42.06
17209;BME280;8720;48.488;9.202;2023-04-27T07:45:10;97129.94;;;21.34;41.25
17209;BME280;8720;48.488;9.202;2023-04-27T07:47:37;97153.09;;;21.87;41.04
17209;BME280;8720;48.488;9.202;2023-04-27T07:50:07;97150.25;;;22.15;40.66
17209;BME280;8720;48.488;9.202;2023-04-27T07:52:34;97159.69;;;22.33;39.93
17209;BME280;8720;48.488;9.202;2023-04-27T07:55:04;97146.66;;;22.28;39.69
17209;BME280;8720;48.488;9.202;2023-04-27T07:57:32;97149.03;;;22.33;39.50
17209;BME280;8720;48.488;9.202;2023-04-27T07:59:59;97152.53;;;22.46;39.11
17209;BME280;8720;48.488;9.202;2023-04-27T08:02:28;97160.44;;;22.60;39.15
17209;BME280;8720;48.488;9.202;2023-04-27T08:04:57;97150.22;;;22.67;38.90
17209;BME280;8720;48.488;9.202;2023-04-27T08:07:24;97165.03;;;22.83;38.76
17209;BME280;8720;48.488;9.202;2023-04-27T08:09:51;97160.97;;;23.03;38.75
17209;BME280;8720;48.488;9.202;2023-04-27T08:12:18;97157.22;;;23.30;38.33
17209;BME280;8720;48.488;9.202;2023-04-27T08:14:46;97156.06;;;23.58;38.51
17209;BME280;8720;48.488;9.202;2023-04-27T08:17:13;97155.66;;;23.75;38.10
17209;BME280;8720;48.488;9.202;2023-04-27T08:19:44;97153.78;;;23.88;37.77
17209;BME280;8720;48.488;9.202;2023-04-27T08:22:11;97150.09;;;24.02;37.59
17209;BME280;8720;48.488;9.202;2023-04-27T08:24:39;97139.22;;;24.16;37.30
17209;BME280;8720;48.488;9.202;2023-04-27T08:27:06;97143.53;;;24.29;37.41
17209;BME280;8720;48.488;9.202;2023-04-27T08:29:34;97132.84;;;24.41;37.50
17209;BME280;8720;48.488;9.202;2023-04-27T08:32:03;97140.75;;;24.42;37.17
17209;BME280;8720;48.488;9.202;2023-04-27T08:34:31;97134.53;;;24.42;36.82
17209;BME280;8720;48.488;9.202;2023-04-27T08:36:59;97135.25;;;24.44;36.52
17209;BME280;8720;48.488;9.202;2023-04-27T08:39:29;97135.66;;;24.39;36.70
17209;BME280;8720;48.488;9.202;2023-04-27T08:41:56;97130.75;;;24.33;36.72
17209;BME280;8720;48.488;9.202;2023-04-27T08:44:24;97134.03;;;24.25;36.56
17209;BME280;8720;48.488;9.202;2023-04-27T08:46:51;97128.53;;;24.16;36.54
17209;BME280;8720;48.488;9.202;2023-04-27T08:49:18;97138.22;;;24.06;36.05
17209;BME280;8720;48.488;9.202;2023-04-27T08:51:46;97128.75;;;23.89;35.98
17209;BME280;8720;48.488;9.202;2023-04-27T08:54:15;97126.28;;;23.75;35.86
17209;BME280;8720;48.488;9.202;2023-04-27T08:56:42;97132.41;;;23.65;35.69
17209;BME280;8720;48.488;9.202;2023-04-27T08:59:14;97132.34;;;23.54;35.66
17209;BME280;8720;48.488;9.202;2023-04-27T09:01:45;97123.66;;;23.39;35.63
17209;BME280;8720;48.488;9.202;2023-04-27T09:04:14;97127.16;;;23.39;35.23
17209;BME280;8720;48.488;9.202;2023-04-27T09:06:42;97126.84;;;23.31;35.48
17209;BME280;8720;48.488;9.202;2023-04-27T09:09:23;97120.13;;;23.26;35.64
17209;BME280;8720;48.488;9.202;2023-04-27T09:11:50;97127.63;;;23.21;35.09
17209;BME280;8720;48.488;9.202;2023-04-27T09:14:20;97120.16;;;23.13;35.56
17209;BME280;8720;48.488;9.202;2023-04-27T09:16:53;97123.47;;;23.17;35.48
17209;BME280;8720;48.488;9.202;2023-04-27T09:19:27;97125.59;;;23.37;29.72
17209;BME280;8720;48.488;9.202;2023-04-27T09:22:06;97121.84;;;23.27;32.78
17209;BME280;8720;48.488;9.202;2023-04-27T09:24:35;97124.94;;;23.21;33.51
17209;BME280;8720;48.488;9.202;2023-04-27T09:27:03;97125.56;;;23.24;34.02
17209;BME280;8720;48.488;9.202;2023-04-27T09:29:36;97130.19;;;23.22;34.49
17209;BME280;8720;48.488;9.202;2023-04-27T09:32:14;97124.94;;;23.21;34.43
17209;BME280;8720;48.488;9.202;2023-04-27T09:34:43;97127.00;;;23.17;34.81
17209;BME280;8720;48.488;9.202;2023-04-27T09:37:11;97127.94;;;23.16;34.61
17209;BME280;8720;48.488;9.202;2023-04-27T09:39:41;97127.31;;;23.13;34.62
17209;BME280;8720;48.488;9.202;2023-04-27T09:42:10;97121.03;;;23.01;34.77
17209;BME280;8720;48.488;9.202;2023-04-27T09:44:38;97107.81;;;23.00;34.88
17209;BME280;8720;48.488;9.202;2023-04-27T09:47:06;97127.13;;;23.03;34.57
17209;BME280;8720;48.488;9.202;2023-04-27T09:49:34;97122.97;;;22.99;34.78
17209;BME280;8720;48.488;9.202;2023-04-27T09:52:01;97114.03;;;22.88;34.87
17209;BME280;8720;48.488;9.202;2023-04-27T09:54:33;97118.31;;;22.90;35.19
17209;BME280;8720;48.488;9.202;2023-04-27T09:57:17;97116.56;;;22.89;35.35
17209;BME280;8720;48.488;9.202;2023-04-27T10:00:06;97103.78;;;22.94;35.51
17209;BME280;8720;48.488;9.202;2023-04-27T10:02:46;97106.09;;;22.99;35.12
17209;BME280;8720;48.488;9.202;2023-04-27T10:05:38;97109.41;;;23.02;35.28
17209;BME280;8720;48.488;9.202;2023-04-27T10:08:11;97124.78;;;22.99;34.71
17209;BME280;8720;48.488;9.202;2023-04-27T10:10:46;97115.50;;;22.92;34.82
17209;BME280;8720;48.488;9.202;2023-04-27T10:13:23;97113.41;;;22.84;34.95
17209;BME280;8720;48.488;9.202;2023-04-27T10:15:51;97112.03;;;22.79;34.23
17209;BME280;8720;48.488;9.202;2023-04-27T10:18:27;97111.81;;;22.69;34.54
17209;BME280;8720;48.488;9.202;2023-04-27T10:21:08;97109.69;;;22.62;34.76
17209;BME280;8720;48.488;9.202;2023-04-27T10:23:45;97073.84;;;22.40;34.72
17209;BME280;8720;48.488;9.202;2023-04-27T10:26:21;97100.91;;;22.47;34.98
17209;BME280;8720;48.488;9.202;2023-04-27T10:28:58;97099.53;;;22.41;34.90
17209;BME280;8720;48.488;9.202;2023-04-27T10:31:30;97107.75;;;22.38;34.67
17209;BME280;8720;48.488;9.202;2023-04-27T10:34:06;97112.66;;;22.44;34.93
17209;BME280;8720;48.488;9.202;2023-04-27T10:36:35;97113.94;;;22.51;34.51
17209;BME280;8720;48.488;9.202;2023-04-27T10:39:13;97109.91;;;22.58;34.87
17209;BME280;8720;48.488;9.202;2023-04-27T10:41:49;97107.44;;;22.68;35.01
17209;BME280;8720;48.488;9.202;2023-04-27T10:44:24;97111.38;;;22.75;35.04
17209;BME280;8720;48.488;9.202;2023-04-27T10:46:55;97102.97;;;22.81;34.91
17209;BME280;8720;48.488;9.202;2023-04-27T10:49:23;97103.34;;;22.88;34.44
17209;BME280;8720;48.488;9.202;2023-04-27T10:51:50;97094.06;;;22.93;34.23
17209;BME280;8720;48.488;9.202;2023-04-27T10:54:18;97105.91;;;23.02;34.24
17209;BME280;8720;48.488;9.202;2023-04-27T10:56:45;97114.84;;;23.13;34.62
17209;BME280;8720;48.488;9.202;2023-04-27T10:59:13;97108.06;;;23.20;34.10
17209;BME280;8720;48.488;9.202;2023-04-27T11:01:41;97099.94;;;23.22;33.94
17209;BME280;8720;48.488;9.202;2023-04-27T11:04:09;97096.31;;;23.23;33.84
17209;BME280;8720;48.488;9.202;2023-04-27T11:06:42;97093.88;;;23.20;33.96
17209;BME280;8720;48.488;9.202;2023-04-27T11:09:10;97096.88;;;23.15;34.09
17209;BME280;8720;48.488;9.202;2023-04-27T11:11:43;97098.41;;;23.07;33.91
17209;BME280;8720;48.488;9.202;2023-04-27T11:14:18;97081.25;;;22.98;33.98
17209;BME280;8720;48.488;9.202;2023-04-27T11:16:47;97098.06;;;23.11;34.77
17209;BME280;8720;48.488;9.202;2023-04-27T11:19:15;97098.38;;;23.19;33.97
17209;BME280;8720;48.488;9.202;2023-04-27T11:21:43;97095.88;;;23.29;34.26
17209;BME280;8720;48.488;9.202;2023-04-27T11:24:10;97082.00;;;23.36;34.21
17209;BME280;8720;48.488;9.202;2023-04-27T11:26:37;97094.53;;;23.47;34.68
17209;BME280;8720;48.488;9.202;2023-04-27T11:29:07;97085.88;;;23.56;34.11
17209;BME280;8720;48.488;9.202;2023-04-27T11:31:40;97079.22;;;23.62;33.96
17209;BME280;8720;48.488;9.202;2023-04-27T11:34:17;97078.09;;;23.64;33.93
17209;BME280;8720;48.488;9.202;2023-04-27T11:36:55;97078.97;;;23.65;34.10
17209;BME280;8720;48.488;9.202;2023-04-27T11:39:22;97079.59;;;23.68;33.77
17209;BME280;8720;48.488;9.202;2023-04-27T11:41:52;97077.78;;;23.69;34.11
17209;BME280;8720;48.488;9.202;2023-04-27T11:44:25;97085.78;;;23.69;33.55
17209;BME280;8720;48.488;9.202;2023-04-27T11:46:53;97082.38;;;23.67;33.57
17209;BME280;8720;48.488;9.202;2023-04-27T11:49:24;97080.69;;;23.66;33.96
17209;BME280;8720;48.488;9.202;2023-04-27T11:51:51;97091.38;;;23.66;33.53
17209;BME280;8720;48.488;9.202;2023-04-27T11:54:27;97085.41;;;23.62;33.99
17209;BME280;8720;48.488;9.202;2023-04-27T11:57:04;97083.81;;;23.60;34.05
17209;BME280;8720;48.488;9.202;2023-04-27T11:59:32;97084.56;;;23.62;33.99
17209;BME280;8720;48.488;9.202;2023-04-27T12:01:59;97083.44;;;23.64;33.48
17209;BME280;8720;48.488;9.202;2023-04-27T12:04:28;97080.44;;;23.69;33.45
17209;BME280;8720;48.488;9.202;2023-04-27T12:06:55;97068.56;;;23.73;33.29
17209;BME280;8720;48.488;9.202;2023-04-27T12:09:23;97068.09;;;23.79;33.17
17209;BME280;8720;48.488;9.202;2023-04-27T12:11:50;97065.91;;;23.84;32.98
17209;BME280;8720;48.488;9.202;2023-04-27T12:14:19;97055.13;;;23.85;33.31
17209;BME280;8720;48.488;9.202;2023-04-27T12:16:46;97049.56;;;23.88;33.22
17209;BME280;8720;48.488;9.202;2023-04-27T12:19:14;97043.13;;;23.91;33.02
17209;BME280;8720;48.488;9.202;2023-04-27T12:21:42;97049.56;;;23.99;33.01
17209;BME280;8720;48.488;9.202;2023-04-27T12:24:10;97046.59;;;24.04;32.97
17209;BME280;8720;48.488;9.202;2023-04-27T12:26:37;97051.47;;;24.10;32.70
17209;BME280;8720;48.488;9.202;2023-04-27T12:29:04;97050.00;;;24.17;32.47
17209;BME280;8720;48.488;9.202;2023-04-27T12:31:32;97053.06;;;24.23;32.38
17209;BME280;8720;48.488;9.202;2023-04-27T12:33:59;97053.34;;;24.31;32.25
17209;BME280;8720;48.488;9.202;2023-04-27T12:36:27;97056.00;;;24.43;32.71
17209;BME280;8720;48.488;9.202;2023-04-27T12:38:59;97048.25;;;24.51;32.26
17209;BME280;8720;48.488;9.202;2023-04-27T12:41:27;97053.19;;;24.55;32.38
17209;BME280;8720;48.488;9.202;2023-04-27T12:43:54;97048.34;;;24.60;32.43
17209;BME280;8720;48.488;9.202;2023-04-27T12:46:21;97052.09;;;24.69;32.78
17209;BME280;8720;48.488;9.202;2023-04-27T12:48:49;97029.50;;;24.62;32.23
17209;BME280;8720;48.488;9.202;2023-04-27T12:51:16;97048.84;;;24.76;32.43
17209;BME280;8720;48.488;9.202;2023-04-27T12:53:43;97014.53;;;24.59;32.09
17209;BME280;8720;48.488;9.202;2023-04-27T12:56:12;97047.28;;;24.85;31.91
17209;BME280;8720;48.488;9.202;2023-04-27T12:58:39;97037.53;;;24.84;32.40
17209;BME280;8720;48.488;9.202;2023-04-27T13:01:07;97041.31;;;24.92;32.38
17209;BME280;8720;48.488;9.202;2023-04-27T13:03:39;97039.34;;;24.94;32.63
17209;BME280;8720;48.488;9.202;2023-04-27T13:06:07;97036.91;;;25.02;32.09
17209;BME280;8720;48.488;9.202;2023-04-27T13:08:35;97033.13;;;25.05;32.33
17209;BME280;8720;48.488;9.202;2023-04-27T13:11:03;97029.94;;;25.11;32.21
17209;BME280;8720;48.488;9.202;2023-04-27T13:13:32;97009.75;;;25.07;31.93
17209;BME280;8720;48.488;9.202;2023-04-27T13:15:59;96995.91;;;25.02;32.42
17209;BME280;8720;48.488;9.202;2023-04-27T13:18:26;97017.19;;;25.14;32.40